sensor_id;sensor_type;location;lat;lon;timestamp;pressure;altitude;pressure_sealevel;temperature;humidity
11856;BME280;5987;53.140;8.904;2023-07-31T00:01:32;100855.53;;;14.84;100.00
11856;BME280;5987;53.140;8.904;2023-07-31T00:04:36;100863.56;;;14.83;100.00
11856;BME280;5987;53.140;8.904;2023-07-31T00:07:40;100862.88;;;14.79;100.00
11856;BME280;5987;53.140;8.904;2023-07-31T00:10:45;100860.66;;;14.87;100.00
11856;BME280;5987;53.140;8.904;2023-07-31T00:13:48;100860.47;;;14.90;100.00
11856;BME280;5987;53.140;8.904;2023-07-31T00:16:52;100857.53;;;14.97;100.00
11856;BME280;5987;53.140;8.904;2023-07-31T00:19:55;100849.41;;;15.00;100.00
11856;BME280;5987;53.140;8.904;2023-07-31T00:22:59;100855.63;;;14.99;100.00
11856;BME280;5987;53.140;8.904;2023-07-31T00:26:04;100850.97;;;15.04;100.00
11856;BME280;5987;53.140;8.904;2023-07-31T00:29:07;100847.44;;;15.03;100.00
11856;BME280;5987;53.140;8.904;2023-07-31T00:32:11;100839.38;;;15.06;100.00
11856;BME280;5987;53.140;8.904;2023-07-31T00:35:15;100845.50;;;15.07;100.00
11856;BME280;5987;53.140;8.904;2023-07-31T00:38:18;100840.03;;;15.10;100.00
11856;BME280;5987;53.140;8.904;2023-07-31T00:41:23;100833.19;;;15.06;100.00
11856;BME280;5987;53.140;8.904;2023-07-31T00:44:27;100841.31;;;15.03;100.00
11856;BME280;5987;53.140;8.904;2023-07-31T00:47:31;100841.22;;;15.04;100.00
11856;BME280;5987;53.140;8.904;2023-07-31T00:50:35;100842.75;;;15.08;100.00
11856;BME280;5987;53.140;8.904;2023-07-31T00:53:40;100834.22;;;15.03;100.00
11856;BME280;5987;53.140;8.904;2023-07-31T00:56:47;100837.81;;;15.02;100.00
11856;BME280;5987;53.140;8.904;2023-07-31T00:59:51;100831.00;;;14.98;100.00
11856;BME280;5987;53.140;8.904;2023-07-31T01:02:55;100830.31;;;14.95;100.00
11856;BME280;5987;53.140;8.904;2023-07-31T01:06:14;100835.59;;;14.95;100.00
11856;BME280;5987;53.140;8.904;2023-07-31T01:09:32;100827.56;;;14.96;100.00
11856;BME280;5987;53.140;8.904;2023-07-31T01:12:41;100822.19;;;14.98;100.00
11856;BME280;5987;53.140;8.904;2023-07-31T01:15:45;100821.34;;;14.97;100.00
11856;BME280;5987;53.140;8.904;2023-07-31T01:18:48;100818.69;;;14.97;100.00
11856;BME280;5987;53.140;8.904;2023-07-31T01:22:25;100824.34;;;14.91;100.00
11856;BME280;5987;53.140;8.904;2023-07-31T01:25:54;100825.28;;;14.90;100.00
11856;BME280;5987;53.140;8.904;2023-07-31T01:29:05;100837.78;;;14.86;100.00
11856;BME280;5987;53.140;8.904;2023-07-31T01:32:12;100841.41;;;14.85;100.00
11856;BME280;5987;53.140;8.904;2023-07-31T01:35:17;100839.59;;;14.86;100.00
11856;BME280;5987;53.140;8.904;2023-07-31T01:38:21;100833.59;;;14.82;100.00
11856;BME280;5987;53.140;8.904;2023-07-31T01:41:26;100827.41;;;14.83;100.00
11856;BME280;5987;53.140;8.904;2023-07-31T01:44:30;100820.16;;;14.87;100.00
11856;BME280;5987;53.140;8.904;2023-07-31T01:47:35;100814.97;;;14.85;100.00
11856;BME280;5987;53.140;8.904;2023-07-31T01:50:38;100812.81;;;14.92;100.00
11856;BME280;5987;53.140;8.904;2023-07-31T01:53:42;100804.81;;;14.94;100.00
11856;BME280;5987;53.140;8.904;2023-07-31T01:56:47;100797.91;;;14.91;100.00
11856;BME280;5987;53.140;8.904;2023-07-31T01:59:50;100798.06;;;14.88;100.00
11856;BME280;5987;53.140;8.904;2023-07-31T02:02:55;100797.31;;;14.86;100.00
11856;BME280;5987;53.140;8.904;2023-07-31T02:05:59;100802.06;;;14.79;100.00
11856;BME280;5987;53.140;8.904;2023-07-31T02:09:03;100808.13;;;14.81;100.00
11856;BME280;5987;53.140;8.904;2023-07-31T02:12:08;100805.97;;;14.72;100.00
11856;BME280;5987;53.140;8.904;2023-07-31T02:15:12;100818.91;;;14.61;100.00
11856;BME280;5987;53.140;8.904;2023-07-31T02:18:16;100812.84;;;14.58;100.00
11856;BME280;5987;53.140;8.904;2023-07-31T02:21:19;100819.97;;;14.40;100.00
11856;BME280;5987;53.140;8.904;2023-07-31T02:24:24;100810.41;;;14.38;100.00
11856;BME280;5987;53.140;8.904;2023-07-31T02:27:29;100818.09;;;14.43;100.00
11856;BME280;5987;53.140;8.904;2023-07-31T02:30:32;100817.72;;;14.33;100.00
11856;BME280;5987;53.140;8.904;2023-07-31T02:33:36;100819.88;;;14.26;100.00
11856;BME280;5987;53.140;8.904;2023-07-31T02:36:42;100833.28;;;14.21;100.00
11856;BME280;5987;53.140;8.904;2023-07-31T02:39:46;100835.94;;;14.21;100.00
11856;BME280;5987;53.140;8.904;2023-07-31T02:42:51;100834.06;;;14.23;100.00
11856;BME280;5987;53.140;8.904;2023-07-31T02:45:55;100837.97;;;14.16;100.00
11856;BME280;5987;53.140;8.904;2023-07-31T02:48:58;100829.97;;;14.18;100.00
11856;BME280;5987;53.140;8.904;2023-07-31T02:52:02;100827.25;;;14.19;100.00
11856;BME280;5987;53.140;8.904;2023-07-31T02:55:07;100833.53;;;14.17;100.00
11856;BME280;5987;53.140;8.904;2023-07-31T02:58:12;100834.25;;;14.20;100.00
11856;BME280;5987;53.140;8.904;2023-07-31T03:01:16;100841.53;;;14.15;100.00
11856;BME280;5987;53.140;8.904;2023-07-31T03:04:19;100843.25;;;14.16;100.00
11856;BME280;5987;53.140;8.904;2023-07-31T03:07:23;100843.16;;;14.18;100.00
11856;BME280;5987;53.140;8.904;2023-07-31T03:10:27;100856.28;;;14.19;100.00
11856;BME280;5987;53.140;8.904;2023-07-31T03:13:32;100846.97;;;14.12;100.00
11856;BME280;5987;53.140;8.904;2023-07-31T03:16:35;100848.38;;;14.19;100.00
11856;BME280;5987;53.140;8.904;2023-07-31T03:19:40;100841.53;;;14.15;100.00
11856;BME280;5987;53.140;8.904;2023-07-31T03:22:43;100842.72;;;14.10;100.00
11856;BME280;5987;53.140;8.904;2023-07-31T03:25:57;100847.91;;;14.11;100.00
11856;BME280;5987;53.140;8.904;2023-07-31T03:29:02;100846.97;;;14.12;100.00
11856;BME280;5987;53.140;8.904;2023-07-31T03:32:06;100846.09;;;14.12;100.00
11856;BME280;5987;53.140;8.904;2023-07-31T03:35:10;100847.06;;;14.11;100.00
11856;BME280;5987;53.140;8.904;2023-07-31T03:38:13;100841.84;;;14.09;100.00
11856;BME280;5987;53.140;8.904;2023-07-31T03:41:17;100842.78;;;14.08;100.00
11856;BME280;5987;53.140;8.904;2023-07-31T03:44:22;100851.47;;;14.10;100.00
11856;BME280;5987;53.140;8.904;2023-07-31T03:47:26;100841.69;;;14.12;100.00
11856;BME280;5987;53.140;8.904;2023-07-31T03:50:30;100839.19;;;14.09;100.00
11856;BME280;5987;53.140;8.904;2023-07-31T03:53:34;100833.41;;;14.02;100.00
11856;BME280;5987;53.140;8.904;2023-07-31T03:56:37;100834.94;;;14.06;100.00
11856;BME280;5987;53.140;8.904;2023-07-31T03:59:43;100833.31;;;14.04;100.00
11856;BME280;5987;53.140;8.904;2023-07-31T04:02:46;100834.88;;;14.08;100.00
11856;BME280;5987;53.140;8.904;2023-07-31T04:05:50;100834.72;;;14.11;100.00
11856;BME280;5987;53.140;8.904;2023-07-31T04:08:54;100839.19;;;14.09;100.00
11856;BME280;5987;53.140;8.904;2023-07-31T04:11:57;100837.72;;;14.03;100.00
11856;BME280;5987;53.140;8.904;2023-07-31T04:15:03;100845.59;;;14.05;100.00
11856;BME280;5987;53.140;8.904;2023-07-31T04:18:06;100829.66;;;14.06;100.00
11856;BME280;5987;53.140;8.904;2023-07-31T04:21:10;100833.41;;;14.02;100.00
11856;BME280;5987;53.140;8.904;2023-07-31T04:24:14;100828.50;;;13.95;100.00
11856;BME280;5987;53.140;8.904;2023-07-31T04:27:18;100833.47;;;14.01;100.00
11856;BME280;5987;53.140;8.904;2023-07-31T04:30:24;100828.19;;;14.01;100.00
11856;BME280;5987;53.140;8.904;2023-07-31T04:33:27;100819.03;;;14.08;100.00
11856;BME280;5987;53.140;8.904;2023-07-31T04:36:31;100817.06;;;14.12;100.00
11856;BME280;5987;53.140;8.904;2023-07-31T04:39:35;100813.41;;;14.14;100.00
11856;BME280;5987;53.140;8.904;2023-07-31T04:42:38;100812.94;;;14.23;100.00
11856;BME280;5987;53.140;8.904;2023-07-31T04:45:46;100811.63;;;14.15;100.00
11856;BME280;5987;53.140;8.904;2023-07-31T04:48:50;100807.28;;;14.14;100.00
11856;BME280;5987;53.140;8.904;2023-07-31T04:51:54;100806.28;;;14.16;100.00
11856;BME280;5987;53.140;8.904;2023-07-31T04:54:57;100802.09;;;14.12;100.00
11856;BME280;5987;53.140;8.904;2023-07-31T04:58:01;100800.03;;;14.17;100.00
11856;BME280;5987;53.140;8.904;2023-07-31T05:01:06;100800.84;;;14.19;100.00
11856;BME280;5987;53.140;8.904;2023-07-31T05:04:09;100806.59;;;14.10;100.00
11856;BME280;5987;53.140;8.904;2023-07-31T05:07:13;100801.50;;;14.23;100.00
11856;BME280;5987;53.140;8.904;2023-07-31T05:10:17;100800.84;;;14.19;100.00
11856;BME280;5987;53.140;8.904;2023-07-31T05:13:21;100800.50;;;14.26;100.00
11856;BME280;5987;53.140;8.904;2023-07-31T05:16:26;100799.50;;;14.28;100.00
11856;BME280;5987;53.140;8.904;2023-07-31T05:19:31;100795.66;;;14.34;100.00
11856;BME280;5987;53.140;8.904;2023-07-31T05:22:35;100794.13;;;14.30;100.00
11856;BME280;5987;53.140;8.904;2023-07-31T05:25:39;100799.44;;;14.46;100.00
11856;BME280;5987;53.140;8.904;2023-07-31T05:28:42;100788.16;;;14.26;100.00
11856;BME280;5987;53.140;8.904;2023-07-31T05:31:47;100783.47;;;14.31;100.00
11856;BME280;5987;53.140;8.904;2023-07-31T05:34:51;100789.75;;;14.29;100.00
11856;BME280;5987;53.140;8.904;2023-07-31T05:37:55;100783.81;;;14.25;100.00
11856;BME280;5987;53.140;8.904;2023-07-31T05:40:58;100789.53;;;14.33;100.00
11856;BME280;5987;53.140;8.904;2023-07-31T05:44:03;100782.81;;;14.44;100.00
11856;BME280;5987;53.140;8.904;2023-07-31T05:47:08;100775.16;;;14.39;100.00
11856;BME280;5987;53.140;8.904;2023-07-31T05:50:11;100764.41;;;14.42;100.00
11856;BME280;5987;53.140;8.904;2023-07-31T05:53:16;100754.13;;;14.53;100.00
11856;BME280;5987;53.140;8.904;2023-07-31T05:56:20;100751.91;;;14.62;100.00
11856;BME280;5987;53.140;8.904;2023-07-31T05:59:24;100753.78;;;14.59;100.00
11856;BME280;5987;53.140;8.904;2023-07-31T06:02:29;100749.28;;;14.62;100.00
11856;BME280;5987;53.140;8.904;2023-07-31T06:05:35;100741.81;;;14.70;100.00
11856;BME280;5987;53.140;8.904;2023-07-31T06:08:39;100740.44;;;14.79;100.00
11856;BME280;5987;53.140;8.904;2023-07-31T06:11:43;100745.81;;;14.77;100.00
11856;BME280;5987;53.140;8.904;2023-07-31T06:14:47;100739.75;;;14.91;100.00
11856;BME280;5987;53.140;8.904;2023-07-31T06:17:52;100745.28;;;14.70;100.00
11856;BME280;5987;53.140;8.904;2023-07-31T06:20:56;100744.44;;;14.70;100.00
11856;BME280;5987;53.140;8.904;2023-07-31T06:24:00;100746.91;;;14.73;100.00
11856;BME280;5987;53.140;8.904;2023-07-31T06:27:05;100755.59;;;14.75;100.00
11856;BME280;5987;53.140;8.904;2023-07-31T06:30:09;100743.34;;;14.74;100.00
11856;BME280;5987;53.140;8.904;2023-07-31T06:33:15;100741.03;;;14.84;100.00
11856;BME280;5987;53.140;8.904;2023-07-31T06:36:18;100732.78;;;14.74;100.00
11856;BME280;5987;53.140;8.904;2023-07-31T06:39:22;100732.06;;;14.86;100.00
11856;BME280;5987;53.140;8.904;2023-07-31T06:42:26;100727.81;;;14.84;100.00
11856;BME280;5987;53.140;8.904;2023-07-31T06:45:29;100728.16;;;14.78;100.00
11856;BME280;5987;53.140;8.904;2023-07-31T06:48:35;100720.91;;;14.81;100.00
11856;BME280;5987;53.140;8.904;2023-07-31T06:51:39;100720.75;;;14.68;100.00
11856;BME280;5987;53.140;8.904;2023-07-31T06:54:42;100719.59;;;14.72;100.00
11856;BME280;5987;53.140;8.904;2023-07-31T06:57:46;100713.31;;;14.75;100.00
11856;BME280;5987;53.140;8.904;2023-07-31T07:00:50;100709.13;;;14.71;100.00
11856;BME280;5987;53.140;8.904;2023-07-31T07:03:55;100709.38;;;14.82;100.00
11856;BME280;5987;53.140;8.904;2023-07-31T07:06:59;100717.16;;;14.85;100.00
11856;BME280;5987;53.140;8.904;2023-07-31T07:10:04;100709.22;;;14.85;100.00
11856;BME280;5987;53.140;8.904;2023-07-31T07:13:08;100704.69;;;14.87;100.00
11856;BME280;5987;53.140;8.904;2023-07-31T07:16:12;100703.22;;;14.98;100.00
11856;BME280;5987;53.140;8.904;2023-07-31T07:19:17;100708.50;;;14.98;100.00
11856;BME280;5987;53.140;8.904;2023-07-31T07:22:20;100711.00;;;15.01;100.00
11856;BME280;5987;53.140;8.904;2023-07-31T07:25:24;100706.97;;;15.09;100.00
11856;BME280;5987;53.140;8.904;2023-07-31T07:28:28;100705.38;;;15.21;100.00
11856;BME280;5987;53.140;8.904;2023-07-31T07:31:31;100700.78;;;15.25;100.00
11856;BME280;5987;53.140;8.904;2023-07-31T07:34:37;100702.03;;;15.34;100.00
11856;BME280;5987;53.140;8.904;2023-07-31T07:37:41;100697.34;;;15.23;100.00
11856;BME280;5987;53.140;8.904;2023-07-31T07:40:45;100699.34;;;15.19;100.00
11856;BME280;5987;53.140;8.904;2023-07-31T07:43:48;100706.16;;;15.23;100.00
11856;BME280;5987;53.140;8.904;2023-07-31T07:46:53;100701.81;;;15.22;100.00
11856;BME280;5987;53.140;8.904;2023-07-31T07:49:58;100699.53;;;15.16;100.00
11856;BME280;5987;53.140;8.904;2023-07-31T07:53:02;100698.22;;;15.23;100.00
11856;BME280;5987;53.140;8.904;2023-07-31T07:56:05;100702.41;;;15.42;100.00
11856;BME280;5987;53.140;8.904;2023-07-31T07:59:09;100701.75;;;15.38;100.00
11856;BME280;5987;53.140;8.904;2023-07-31T08:02:13;100693.56;;;15.43;100.00
11856;BME280;5987;53.140;8.904;2023-07-31T08:05:18;100696.72;;;15.34;100.00
11856;BME280;5987;53.140;8.904;2023-07-31T08:08:22;100696.84;;;15.47;100.00
11856;BME280;5987;53.140;8.904;2023-07-31T08:11:25;100689.41;;;15.53;100.00
11856;BME280;5987;53.140;8.904;2023-07-31T08:14:29;100686.44;;;15.43;100.00
11856;BME280;5987;53.140;8.904;2023-07-31T08:17:34;100679.22;;;15.61;100.00
11856;BME280;5987;53.140;8.904;2023-07-31T08:20:39;100670.69;;;15.71;100.00
11856;BME280;5987;53.140;8.904;2023-07-31T08:23:43;100674.66;;;15.64;100.00
11856;BME280;5987;53.140;8.904;2023-07-31T08:26:47;100665.69;;;15.66;100.00
11856;BME280;5987;53.140;8.904;2023-07-31T08:29:52;100651.94;;;15.90;100.00
11856;BME280;5987;53.140;8.904;2023-07-31T08:32:56;100647.84;;;15.84;100.00
11856;BME280;5987;53.140;8.904;2023-07-31T08:36:01;100641.41;;;16.03;100.00
11856;BME280;5987;53.140;8.904;2023-07-31T08:39:04;100632.03;;;16.11;100.00
11856;BME280;5987;53.140;8.904;2023-07-31T08:42:09;100609.41;;;16.20;100.00
11856;BME280;5987;53.140;8.904;2023-07-31T08:45:16;100601.63;;;16.32;100.00
11856;BME280;5987;53.140;8.904;2023-07-31T08:48:22;100594.31;;;16.08;100.00
11856;BME280;5987;53.140;8.904;2023-07-31T08:51:28;100600.13;;;16.27;100.00
11856;BME280;5987;53.140;8.904;2023-07-31T08:54:33;100595.63;;;16.15;100.00
11856;BME280;5987;53.140;8.904;2023-07-31T08:57:38;100597.91;;;16.07;100.00
11856;BME280;5987;53.140;8.904;2023-07-31T09:00:43;100597.75;;;16.23;100.00
11856;BME280;5987;53.140;8.904;2023-07-31T09:03:49;100600.38;;;16.37;100.00
11856;BME280;5987;53.140;8.904;2023-07-31T09:07:03;100588.75;;;16.25;100.00
11856;BME280;5987;53.140;8.904;2023-07-31T09:10:07;100592.31;;;16.39;100.00
11856;BME280;5987;53.140;8.904;2023-07-31T09:13:11;100589.78;;;16.37;100.00
11856;BME280;5987;53.140;8.904;2023-07-31T09:16:15;100578.53;;;16.34;100.00
11856;BME280;5987;53.140;8.904;2023-07-31T09:19:26;100579.81;;;16.41;100.00
11856;BME280;5987;53.140;8.904;2023-07-31T09:22:35;100576.44;;;16.39;100.00
11856;BME280;5987;53.140;8.904;2023-07-31T09:25:40;100575.50;;;16.25;100.00
11856;BME280;5987;53.140;8.904;2023-07-31T09:28:46;100570.41;;;16.22;100.00
11856;BME280;5987;53.140;8.904;2023-07-31T09:31:51;100568.53;;;16.24;100.00
11856;BME280;5987;53.140;8.904;2023-07-31T09:34:54;100569.78;;;16.19;100.00
11856;BME280;5987;53.140;8.904;2023-07-31T09:38:04;100566.38;;;16.17;100.00
11856;BME280;5987;53.140;8.904;2023-07-31T09:41:08;100567.03;;;16.20;100.00
11856;BME280;5987;53.140;8.904;2023-07-31T09:44:13;100557.06;;;16.24;100.00
11856;BME280;5987;53.140;8.904;2023-07-31T09:47:23;100551.81;;;16.37;100.00
11856;BME280;5987;53.140;8.904;2023-07-31T09:50:29;100556.94;;;16.40;100.00
11856;BME280;5987;53.140;8.904;2023-07-31T09:53:34;100560.75;;;16.36;100.00
11856;BME280;5987;53.140;8.904;2023-07-31T09:56:42;100552.69;;;16.37;100.00
11856;BME280;5987;53.140;8.904;2023-07-31T09:59:48;100556.09;;;16.52;100.00
11856;BME280;5987;53.140;8.904;2023-07-31T10:02:53;100541.25;;;17.03;100.00
11856;BME280;5987;53.140;8.904;2023-07-31T10:05:58;100529.72;;;17.04;100.00
11856;BME280;5987;53.140;8.904;2023-07-31T10:09:07;100525.34;;;17.15;100.00
11856;BME280;5987;53.140;8.904;2023-07-31T10:12:14;100521.53;;;16.94;100.00
11856;BME280;5987;53.140;8.904;2023-07-31T10:15:20;100520.22;;;16.87;100.00
11856;BME280;5987;53.140;8.904;2023-07-31T10:18:25;100520.84;;;16.64;100.00
11856;BME280;5987;53.140;8.904;2023-07-31T10:21:30;100534.50;;;16.58;100.00
11856;BME280;5987;53.140;8.904;2023-07-31T10:24:39;100530.50;;;16.66;100.00
11856;BME280;5987;53.140;8.904;2023-07-31T10:27:43;100530.22;;;16.43;100.00
11856;BME280;5987;53.140;8.904;2023-07-31T10:30:47;100524.66;;;16.73;100.00
11856;BME280;5987;53.140;8.904;2023-07-31T10:33:52;100529.03;;;16.87;100.00
11856;BME280;5987;53.140;8.904;2023-07-31T10:37:22;100521.28;;;16.84;100.00
11856;BME280;5987;53.140;8.904;2023-07-31T10:40:28;100517.28;;;16.91;100.00
11856;BME280;5987;53.140;8.904;2023-07-31T10:43:33;100518.75;;;16.83;100.00
11856;BME280;5987;53.140;8.904;2023-07-31T10:46:37;100513.31;;;16.84;100.00
11856;BME280;5987;53.140;8.904;2023-07-31T10:49:44;100501.22;;;16.80;100.00
11856;BME280;5987;53.140;8.904;2023-07-31T10:52:50;100500.00;;;16.98;100.00
11856;BME280;5987;53.140;8.904;2023-07-31T10:55:59;100487.78;;;16.96;100.00
11856;BME280;5987;53.140;8.904;2023-07-31T10:59:03;100493.81;;;17.24;100.00
11856;BME280;5987;53.140;8.904;2023-07-31T11:02:25;100487.38;;;17.15;100.00
11856;BME280;5987;53.140;8.904;2023-07-31T11:05:47;100494.28;;;17.05;100.00
11856;BME280;5987;53.140;8.904;2023-07-31T11:08:54;100492.31;;;17.32;100.00
11856;BME280;5987;53.140;8.904;2023-07-31T11:11:59;100484.47;;;17.31;100.00
11856;BME280;5987;53.140;8.904;2023-07-31T11:15:20;100475.66;;;17.30;100.00
11856;BME280;5987;53.140;8.904;2023-07-31T11:18:24;100474.59;;;17.33;100.00
11856;BME280;5987;53.140;8.904;2023-07-31T11:21:29;100473.75;;;17.20;100.00
11856;BME280;5987;53.140;8.904;2023-07-31T11:24:34;100477.25;;;17.33;100.00
11856;BME280;5987;53.140;8.904;2023-07-31T11:27:41;100459.75;;;17.30;100.00
11856;BME280;5987;53.140;8.904;2023-07-31T11:30:47;100459.72;;;17.43;100.00
11856;BME280;5987;53.140;8.904;2023-07-31T11:33:50;100462.56;;;17.53;100.00
11856;BME280;5987;53.140;8.904;2023-07-31T11:36:54;100460.19;;;17.61;100.00
11856;BME280;5987;53.140;8.904;2023-07-31T11:40:02;100452.53;;;17.70;100.00
11856;BME280;5987;53.140;8.904;2023-07-31T11:43:07;100456.34;;;17.41;100.00
11856;BME280;5987;53.140;8.904;2023-07-31T11:46:11;100451.94;;;17.53;100.00
11856;BME280;5987;53.140;8.904;2023-07-31T11:49:17;100443.75;;;17.56;100.00
11856;BME280;5987;53.140;8.904;2023-07-31T11:52:21;100450.03;;;17.55;100.00
11856;BME280;5987;53.140;8.904;2023-07-31T11:55:27;100454.50;;;17.79;100.00
11856;BME280;5987;53.140;8.904;2023-07-31T11:58:35;100441.94;;;17.94;100.00
11856;BME280;5987;53.140;8.904;2023-07-31T12:01:41;100442.09;;;17.79;100.00
11856;BME280;5987;53.140;8.904;2023-07-31T12:04:47;100439.75;;;17.75;100.00
11856;BME280;5987;53.140;8.904;2023-07-31T12:07:54;100436.59;;;17.70;100.00
11856;BME280;5987;53.140;8.904;2023-07-31T12:11:04;100445.09;;;17.62;100.00
11856;BME280;5987;53.140;8.904;2023-07-31T12:14:20;100449.69;;;17.60;100.00
11856;BME280;5987;53.140;8.904;2023-07-31T12:17:25;100451.16;;;17.40;100.00
11856;BME280;5987;53.140;8.904;2023-07-31T12:20:34;100456.59;;;17.87;100.00
11856;BME280;5987;53.140;8.904;2023-07-31T12:23:39;100454.00;;;17.74;100.00
11856;BME280;5987;53.140;8.904;2023-07-31T12:26:46;100452.28;;;17.73;100.00
11856;BME280;5987;53.140;8.904;2023-07-31T12:29:52;100443.63;;;17.71;100.00
11856;BME280;5987;53.140;8.904;2023-07-31T12:32:56;100445.56;;;17.80;100.00
11856;BME280;5987;53.140;8.904;2023-07-31T12:36:03;100437.69;;;17.91;100.00
11856;BME280;5987;53.140;8.904;2023-07-31T12:39:07;100435.59;;;17.83;100.00
11856;BME280;5987;53.140;8.904;2023-07-31T12:42:12;100428.09;;;17.64;100.00
11856;BME280;5987;53.140;8.904;2023-07-31T12:45:18;100427.34;;;17.75;100.00
11856;BME280;5987;53.140;8.904;2023-07-31T12:48:24;100423.13;;;17.84;100.00
11856;BME280;5987;53.140;8.904;2023-07-31T12:51:29;100429.88;;;17.77;100.00
11856;BME280;5987;53.140;8.904;2023-07-31T12:54:37;100427.69;;;17.71;100.00
11856;BME280;5987;53.140;8.904;2023-07-31T12:57:45;100434.53;;;17.49;100.00
11856;BME280;5987;53.140;8.904;2023-07-31T13:00:53;100423.50;;;17.55;100.00
11856;BME280;5987;53.140;8.904;2023-07-31T13:03:57;100423.75;;;17.63;100.00
11856;BME280;5987;53.140;8.904;2023-07-31T13:07:01;100425.03;;;17.71;100.00
11856;BME280;5987;53.140;8.904;2023-07-31T13:10:07;100421.44;;;17.83;100.00
11856;BME280;5987;53.140;8.904;2023-07-31T13:13:13;100408.78;;;17.87;100.00
11856;BME280;5987;53.140;8.904;2023-07-31T13:16:20;100417.56;;;18.00;100.00
11856;BME280;5987;53.140;8.904;2023-07-31T13:19:24;100404.19;;;18.02;100.00
11856;BME280;5987;53.140;8.904;2023-07-31T13:22:28;100395.22;;;18.03;100.00
11856;BME280;5987;53.140;8.904;2023-07-31T13:25:32;100386.78;;;17.97;100.00
11856;BME280;5987;53.140;8.904;2023-07-31T13:28:37;100385.72;;;17.87;100.00
11856;BME280;5987;53.140;8.904;2023-07-31T13:31:43;100386.59;;;17.88;100.00
11856;BME280;5987;53.140;8.904;2023-07-31T13:34:48;100388.09;;;17.92;100.00
11856;BME280;5987;53.140;8.904;2023-07-31T13:37:52;100399.13;;;17.86;100.00
11856;BME280;5987;53.140;8.904;2023-07-31T13:40:57;100392.56;;;18.03;100.00
11856;BME280;5987;53.140;8.904;2023-07-31T13:44:01;100386.16;;;17.94;100.00
11856;BME280;5987;53.140;8.904;2023-07-31T13:47:08;100382.44;;;17.96;100.00
11856;BME280;5987;53.140;8.904;2023-07-31T13:50:12;100377.09;;;17.96;100.00
11856;BME280;5987;53.140;8.904;2023-07-31T13:53:17;100382.44;;;17.96;100.00
11856;BME280;5987;53.140;8.904;2023-07-31T13:56:21;100368.91;;;17.75;100.00
11856;BME280;5987;53.140;8.904;2023-07-31T13:59:27;100388.56;;;17.73;100.00
11856;BME280;5987;53.140;8.904;2023-07-31T14:02:32;100388.09;;;17.79;100.00
11856;BME280;5987;53.140;8.904;2023-07-31T14:05:36;100391.47;;;17.70;100.00
11856;BME280;5987;53.140;8.904;2023-07-31T14:08:40;100402.44;;;17.65;100.00
11856;BME280;5987;53.140;8.904;2023-07-31T14:11:44;100396.38;;;17.63;100.00
11856;BME280;5987;53.140;8.904;2023-07-31T14:14:49;100397.31;;;17.62;100.00
11856;BME280;5987;53.140;8.904;2023-07-31T14:17:58;100382.56;;;17.58;100.00
11856;BME280;5987;53.140;8.904;2023-07-31T14:21:04;100386.94;;;17.59;100.00
11856;BME280;5987;53.140;8.904;2023-07-31T14:24:08;100376.06;;;17.62;100.00
11856;BME280;5987;53.140;8.904;2023-07-31T14:27:15;100370.56;;;17.65;100.00
11856;BME280;5987;53.140;8.904;2023-07-31T14:30:19;100382.06;;;17.77;100.00
11856;BME280;5987;53.140;8.904;2023-07-31T14:33:24;100374.81;;;17.79;100.00
11856;BME280;5987;53.140;8.904;2023-07-31T14:36:28;100382.31;;;17.74;100.00
11856;BME280;5987;53.140;8.904;2023-07-31T14:39:32;100375.88;;;17.65;100.00
11856;BME280;5987;53.140;8.904;2023-07-31T14:42:36;100367.78;;;17.66;100.00
11856;BME280;5987;53.140;8.904;2023-07-31T14:45:40;100375.66;;;17.68;100.00
11856;BME280;5987;53.140;8.904;2023-07-31T14:48:46;100382.91;;;17.77;100.00
11856;BME280;5987;53.140;8.904;2023-07-31T14:51:50;100403.03;;;17.69;100.00
11856;BME280;5987;53.140;8.904;2023-07-31T14:54:54;100379.81;;;17.59;100.00
11856;BME280;5987;53.140;8.904;2023-07-31T14:58:00;100387.34;;;17.65;100.00
11856;BME280;5987;53.140;8.904;2023-07-31T15:01:06;100385.88;;;17.61;100.00
11856;BME280;5987;53.140;8.904;2023-07-31T15:04:11;100393.31;;;17.56;100.00
11856;BME280;5987;53.140;8.904;2023-07-31T15:07:15;100391.78;;;17.41;100.00
11856;BME280;5987;53.140;8.904;2023-07-31T15:10:19;100409.97;;;17.34;100.00
11856;BME280;5987;53.140;8.904;2023-07-31T15:13:24;100408.69;;;17.40;100.00
11856;BME280;5987;53.140;8.904;2023-07-31T15:16:28;100402.22;;;17.31;100.00
11856;BME280;5987;53.140;8.904;2023-07-31T15:19:35;100412.44;;;17.24;100.00
11856;BME280;5987;53.140;8.904;2023-07-31T15:22:40;100400.97;;;17.24;100.00
11856;BME280;5987;53.140;8.904;2023-07-31T15:25:43;100415.16;;;17.36;100.00
11856;BME280;5987;53.140;8.904;2023-07-31T15:28:55;100415.72;;;17.52;100.00
11856;BME280;5987;53.140;8.904;2023-07-31T15:31:59;100418.59;;;17.49;100.00
11856;BME280;5987;53.140;8.904;2023-07-31T15:35:05;100402.69;;;17.49;100.00
11856;BME280;5987;53.140;8.904;2023-07-31T15:38:10;100407.56;;;17.55;100.00
11856;BME280;5987;53.140;8.904;2023-07-31T15:41:13;100404.34;;;17.63;100.00
11856;BME280;5987;53.140;8.904;2023-07-31T15:44:17;100400.97;;;17.61;100.00
11856;BME280;5987;53.140;8.904;2023-07-31T15:47:21;100401.44;;;17.66;100.00
11856;BME280;5987;53.140;8.904;2023-07-31T15:50:26;100392.41;;;17.69;100.00
11856;BME280;5987;53.140;8.904;2023-07-31T15:53:30;100394.59;;;17.75;100.00
11856;BME280;5987;53.140;8.904;2023-07-31T15:56:34;100396.38;;;17.63;100.00
11856;BME280;5987;53.140;8.904;2023-07-31T15:59:38;100402.03;;;17.58;100.00
11856;BME280;5987;53.140;8.904;2023-07-31T16:02:42;100404.97;;;17.66;100.00
11856;BME280;5987;53.140;8.904;2023-07-31T16:05:47;100394.50;;;17.52;100.00
11856;BME280;5987;53.140;8.904;2023-07-31T16:08:51;100402.69;;;17.49;100.00